createdAt,value
2023-01-11T00:00:19.099Z,3.30
2023-01-11T00:03:03.077Z,3.33
2023-01-11T00:05:43.747Z,4.77
2023-01-11T00:08:16.108Z,3.38
2023-01-11T00:10:48.707Z,3.35
2023-01-11T00:13:21.162Z,4.03
2023-01-11T00:15:53.760Z,3.47
2023-01-11T00:18:25.789Z,4.40
2023-01-11T00:20:58.393Z,4.03
2023-01-11T00:23:30.261Z,7.22
2023-01-11T00:26:12.713Z,4.38
2023-01-11T00:28:44.758Z,3.70
2023-01-11T00:31:18.153Z,3.23
2023-01-11T00:33:50.134Z,4.80
2023-01-11T00:36:22.730Z,3.72
2023-01-11T00:38:55.474Z,6.05
2023-01-11T00:41:46.928Z,4.03
2023-01-11T00:44:37.487Z,3.53
2023-01-11T00:47:35.485Z,4.20
2023-01-11T00:50:08.857Z,3.35
2023-01-11T00:52:40.787Z,3.38
2023-01-11T00:55:13.374Z,5.35
2023-01-11T00:57:45.320Z,3.43
2023-01-11T01:00:20.006Z,3.42
2023-01-11T01:02:51.984Z,5.22
2023-01-11T01:05:24.935Z,3.20
2023-01-11T01:07:56.868Z,3.10
2023-01-11T01:10:29.121Z,3.73
2023-01-11T01:13:19.490Z,4.07
2023-01-11T01:15:59.186Z,5.53
2023-01-11T01:18:31.643Z,3.13
2023-01-11T01:21:04.751Z,3.80
2023-01-11T01:23:36.705Z,3.27
2023-01-11T01:26:09.511Z,3.03
2023-01-11T01:28:41.400Z,3.30
2023-01-11T01:31:14.622Z,3.22
2023-01-11T01:33:46.585Z,3.50
2023-01-11T01:36:19.336Z,3.20
2023-01-11T01:38:51.906Z,3.55
2023-01-11T01:41:23.840Z,3.10
2023-01-11T01:44:02.978Z,3.38
2023-01-11T01:46:35.808Z,3.72
2023-01-11T01:49:12.896Z,3.10
2023-01-11T01:51:53.022Z,3.42
2023-01-11T01:54:32.045Z,3.20
2023-01-11T01:57:12.867Z,3.40
2023-01-11T01:59:46.164Z,3.45
2023-01-11T02:02:20.988Z,3.00
2023-01-11T02:04:56.764Z,3.80
2023-01-11T02:07:36.215Z,3.20
2023-01-11T02:10:18.804Z,3.25
2023-01-11T02:12:59.084Z,4.30
2023-01-11T02:15:31.445Z,2.83
2023-01-11T02:18:04.734Z,3.20
2023-01-11T02:21:16.311Z,3.05
2023-01-11T02:24:14.917Z,3.10
2023-01-11T02:27:46.302Z,3.42
2023-01-11T02:30:49.298Z,3.23
2023-01-11T02:33:54.799Z,3.08
2023-01-11T02:37:20.915Z,3.03
2023-01-11T02:40:07.429Z,3.13
2023-01-11T02:43:16.795Z,3.45
2023-01-11T02:46:11.261Z,3.10
2023-01-11T02:49:09.106Z,2.95
2023-01-11T02:51:52.067Z,3.47
2023-01-11T02:54:25.296Z,2.92
2023-01-11T02:57:02.237Z,4.03
2023-01-11T02:59:36.278Z,3.37
2023-01-11T03:02:10.174Z,3.30
2023-01-11T03:04:42.036Z,3.75
2023-01-11T03:07:26.019Z,3.60
2023-01-11T03:10:33.542Z,3.55
2023-01-11T03:13:41.982Z,3.37
2023-01-11T03:16:24.160Z,4.35
2023-01-11T03:19:28.055Z,3.50
2023-01-11T03:22:29.284Z,3.05
2023-01-11T03:25:25.648Z,3.20
2023-01-11T03:28:38.262Z,8.03
2023-01-11T03:31:31.428Z,3.00
2023-01-11T03:34:10.765Z,3.33
2023-01-11T03:37:02.058Z,2.83
2023-01-11T03:40:08.026Z,3.10
2023-01-11T03:43:04.797Z,3.83
2023-01-11T03:45:55.017Z,3.40
2023-01-11T03:48:35.315Z,3.17
2023-01-11T03:51:12.600Z,3.00
2023-01-11T03:53:49.796Z,3.00
2023-01-11T03:56:30.701Z,4.13
2023-01-11T03:59:03.900Z,3.25
2023-01-11T04:01:37.571Z,2.80
2023-01-11T04:04:10.472Z,2.90
2023-01-11T04:06:42.495Z,3.22
2023-01-11T04:09:15.296Z,2.80
2023-01-11T04:11:47.611Z,2.92
2023-01-11T04:14:20.936Z,3.22
2023-01-11T04:16:54.583Z,3.80
2023-01-11T04:19:27.346Z,3.97
2023-01-11T04:21:59.649Z,2.77
2023-01-11T04:24:31.931Z,3.15
2023-01-11T04:27:03.862Z,3.17
2023-01-11T04:29:36.900Z,3.72
2023-01-11T04:32:08.763Z,3.70
2023-01-11T04:34:41.850Z,3.17
2023-01-11T04:37:14.220Z,4.15
2023-01-11T04:39:46.917Z,3.75
2023-01-11T04:42:18.791Z,3.13
2023-01-11T04:44:52.883Z,2.90
2023-01-11T04:47:25.694Z,3.33
2023-01-11T04:49:58.430Z,3.63
2023-01-11T04:52:31.124Z,3.28
2023-01-11T04:55:03.396Z,4.15
2023-01-11T04:57:35.755Z,4.78
2023-01-11T05:00:11.203Z,3.90
2023-01-11T05:02:43.242Z,4.40
2023-01-11T05:05:18.450Z,4.05
2023-01-11T05:07:51.158Z,4.13
2023-01-11T05:10:24.033Z,4.13
2023-01-11T05:12:56.326Z,3.10
2023-01-11T05:15:28.214Z,3.00
2023-01-11T05:18:00.886Z,3.10
2023-01-11T05:20:33.155Z,4.97
2023-01-11T05:23:05.447Z,3.78
2023-01-11T05:25:37.779Z,4.27
2023-01-11T05:28:11.161Z,3.72
2023-01-11T05:30:43.260Z,3.05
2023-01-11T05:33:15.125Z,3.42
2023-01-11T05:35:48.257Z,3.33
2023-01-11T05:38:20.291Z,3.50
2023-01-11T05:41:00.446Z,3.33
2023-01-11T05:43:33.401Z,3.00
2023-01-11T05:46:06.205Z,3.35
2023-01-11T05:48:38.084Z,3.88
2023-01-11T05:51:11.511Z,3.90
2023-01-11T05:53:44.117Z,3.10
2023-01-11T05:56:16.052Z,3.30
2023-01-11T05:58:50.313Z,3.38
2023-01-11T06:01:24.126Z,3.33
2023-01-11T06:03:56.950Z,3.03
2023-01-11T06:06:29.634Z,3.08
2023-01-11T06:09:02.956Z,2.92
2023-01-11T06:11:34.847Z,3.47
2023-01-11T06:14:07.574Z,3.92
2023-01-11T06:16:39.916Z,3.60
2023-01-11T06:19:13.950Z,3.88
2023-01-11T06:21:46.409Z,3.95
2023-01-11T06:24:21.535Z,3.88
2023-01-11T06:26:54.059Z,4.38
2023-01-11T06:29:27.116Z,7.13
2023-01-11T06:31:59.410Z,3.30
2023-01-11T06:34:32.084Z,5.32
2023-01-11T06:37:03.939Z,5.00
2023-01-11T06:39:36.672Z,4.63
2023-01-11T06:42:08.516Z,3.53
2023-01-11T06:47:32.112Z,4.32
2023-01-11T06:50:04.955Z,4.47
2023-01-11T06:52:37.655Z,3.80
2023-01-11T06:55:10.065Z,3.90
2023-01-11T06:57:43.256Z,3.33
2023-01-11T07:00:17.428Z,3.83
2023-01-11T07:02:50.634Z,3.28
2023-01-11T07:05:22.591Z,3.78
2023-01-11T07:07:55.320Z,3.00
2023-01-11T07:10:28.147Z,3.78
2023-01-11T07:13:00.025Z,3.30
2023-01-11T07:15:34.055Z,3.40
2023-01-11T07:18:05.998Z,3.15
2023-01-11T07:20:39.241Z,4.20
2023-01-11T07:23:11.704Z,3.35
2023-01-11T07:25:44.407Z,3.47
2023-01-11T07:28:17.193Z,3.33
2023-01-11T07:30:58.313Z,3.10
2023-01-11T07:33:31.693Z,3.63
2023-01-11T07:36:06.681Z,4.18
2023-01-11T07:38:38.966Z,3.60
2023-01-11T07:41:29.154Z,2.90
2023-01-11T07:44:02.100Z,3.78
2023-01-11T07:46:34.102Z,3.00
2023-01-11T07:49:09.177Z,2.92
2023-01-11T07:51:44.758Z,3.47
2023-01-11T07:54:17.485Z,2.80
2023-01-11T07:56:49.733Z,3.20
2023-01-11T07:59:22.803Z,2.80
2023-01-11T08:01:54.671Z,2.72
2023-01-11T08:04:27.448Z,3.20
2023-01-11T08:07:00.195Z,4.32
2023-01-11T08:09:32.256Z,3.13
2023-01-11T08:12:23.941Z,3.73
2023-01-11T08:14:55.799Z,3.20
2023-01-11T08:17:28.435Z,4.28
2023-01-11T08:20:00.960Z,3.25
2023-01-11T08:22:33.243Z,3.67
2023-01-11T08:25:06.591Z,2.80
2023-01-11T08:27:40.612Z,2.95
2023-01-11T08:30:15.529Z,2.80
2023-01-11T08:32:47.888Z,3.88
2023-01-11T08:35:22.283Z,3.10
2023-01-11T08:37:54.271Z,4.23
2023-01-11T08:43:20.059Z,3.30
2023-01-11T08:45:51.943Z,3.83
2023-01-11T08:48:25.284Z,4.13
2023-01-11T08:50:57.145Z,3.60
2023-01-11T08:53:29.848Z,3.03
2023-01-11T08:56:02.367Z,6.43
2023-01-11T08:58:35.725Z,3.10
2023-01-11T09:01:09.984Z,3.50
2023-01-11T09:03:42.302Z,3.03
2023-01-11T09:06:14.203Z,3.65
2023-01-11T09:08:48.213Z,3.97
2023-01-11T09:11:39.041Z,4.25
2023-01-11T09:14:11.443Z,3.75
2023-01-11T09:16:43.458Z,3.57
2023-01-11T09:19:16.739Z,3.40
2023-01-11T09:22:07.231Z,4.00
2023-01-11T09:24:40.042Z,3.13
2023-01-11T09:27:12.093Z,2.95
2023-01-11T09:29:46.530Z,3.00
2023-01-11T09:32:18.435Z,3.50
2023-01-11T09:34:53.883Z,3.17
2023-01-11T09:37:26.213Z,3.60
2023-01-11T09:40:00.060Z,7.35
2023-01-11T09:42:39.613Z,3.20
2023-01-11T09:45:14.933Z,3.70
2023-01-11T09:47:54.057Z,3.35
2023-01-11T09:50:31.511Z,3.72
2023-01-11T09:53:09.584Z,3.42
2023-01-11T09:55:49.533Z,4.00
2023-01-11T09:58:24.024Z,4.22
2023-01-11T10:01:24.374Z,3.65
2023-01-11T10:04:37.161Z,3.30
2023-01-11T10:18:25.789Z,3.10
2023-01-11T10:18:30.559Z,5.63
2023-01-11T10:21:20.060Z,3.10
2023-01-11T10:24:01.628Z,2.90
2023-01-11T10:26:40.413Z,2.90
2023-01-11T10:29:19.225Z,3.22
2023-01-11T10:32:13.638Z,3.30
2023-01-11T10:35:18.109Z,4.32
2023-01-11T10:38:23.921Z,3.20
2023-01-11T10:41:12.595Z,3.23
2023-01-11T10:43:57.773Z,2.97
2023-01-11T10:46:32.976Z,4.25
2023-01-11T10:53:00.447Z,3.47
2023-01-11T10:55:54.055Z,3.30
2023-01-11T10:59:37.444Z,4.45
2023-01-11T11:02:40.229Z,3.30
2023-01-11T11:05:58.374Z,4.30
2023-01-11T11:08:43.362Z,3.38
2023-01-11T11:11:23.974Z,3.73
2023-01-11T11:14:16.810Z,3.63
2023-01-11T11:17:19.481Z,3.88
2023-01-11T11:19:53.688Z,2.78
2023-01-11T11:22:25.781Z,4.35
2023-01-11T11:25:00.373Z,4.77
2023-01-11T11:27:43.321Z,3.33
2023-01-11T11:30:29.826Z,3.00
2023-01-11T11:33:17.841Z,2.90
2023-01-11T11:36:08.855Z,3.10
2023-01-11T11:39:02.114Z,4.20
2023-01-11T11:41:56.286Z,3.75
2023-01-11T11:44:29.272Z,3.47
2023-01-11T11:47:16.634Z,3.88
2023-01-11T11:49:48.647Z,3.30
2023-01-11T11:52:21.404Z,2.80
2023-01-11T11:54:57.721Z,3.10
2023-01-11T11:57:37.589Z,3.30
2023-01-11T12:00:33.383Z,3.55
2023-01-11T12:03:28.361Z,3.15
2023-01-11T12:06:05.062Z,4.63
2023-01-11T12:08:38.322Z,3.17
2023-01-11T12:11:22.498Z,3.55
2023-01-11T12:14:18.146Z,3.65
2023-01-11T12:16:50.116Z,3.60
2023-01-11T12:19:48.139Z,3.47
2023-01-11T12:22:22.776Z,4.72
2023-01-11T12:25:22.991Z,3.53
2023-01-11T12:28:15.896Z,3.20
2023-01-11T12:31:52.272Z,3.60
2023-01-11T12:34:53.128Z,3.20
2023-01-11T12:37:32.811Z,3.70
2023-01-11T12:40:26.276Z,3.60
2023-01-11T12:43:49.207Z,3.47
2023-01-11T12:46:31.138Z,4.20
2023-01-11T12:49:19.589Z,3.60
2023-01-11T12:52:13.305Z,3.15
2023-01-11T12:55:27.731Z,3.40
2023-01-11T12:58:52.912Z,3.55
2023-01-11T13:02:19.574Z,5.10
2023-01-11T13:05:29.800Z,3.67
2023-01-11T13:08:20.999Z,3.65
2023-01-11T13:11:09.238Z,4.93
2023-01-11T13:14:39.579Z,3.20
2023-01-11T13:17:55.659Z,3.85
2023-01-11T13:20:30.769Z,3.97
2023-01-11T13:23:14.641Z,3.45
2023-01-11T13:25:49.667Z,3.70
2023-01-11T13:28:36.675Z,3.33
2023-01-11T13:31:13.639Z,3.75
2023-01-11T13:37:19.386Z,3.28
2023-01-11T13:40:03.713Z,4.03
2023-01-11T13:42:48.151Z,3.25
2023-01-11T13:45:35.954Z,3.58
2023-01-11T13:48:45.515Z,3.73
2023-01-11T13:51:32.990Z,3.65
2023-01-11T13:54:16.873Z,3.10
2023-01-11T13:56:59.596Z,3.25
2023-01-11T13:59:37.523Z,3.80
2023-01-11T14:02:42.341Z,3.60
2023-01-11T14:05:17.019Z,4.38
2023-01-11T14:08:29.917Z,4.20
2023-01-11T14:11:31.130Z,4.00
2023-01-11T14:14:43.437Z,4.35
2023-01-11T14:18:06.096Z,4.53
2023-01-11T14:20:59.737Z,4.60
2023-01-11T14:23:53.526Z,4.13
2023-01-11T14:26:59.531Z,4.18
2023-01-11T14:30:15.967Z,3.97
2023-01-11T14:33:21.210Z,3.87
2023-01-11T14:36:20.204Z,5.15
2023-01-11T14:39:37.807Z,4.32
2023-01-11T14:42:43.858Z,4.68
2023-01-11T14:45:58.342Z,5.68
2023-01-11T14:48:58.915Z,5.93
2023-01-11T14:51:59.599Z,4.78
2023-01-11T14:54:38.160Z,4.40
2023-01-11T14:57:41.981Z,4.65
2023-01-11T15:00:20.220Z,6.05
2023-01-11T15:03:13.124Z,3.40
2023-01-11T15:05:47.893Z,4.07
2023-01-11T15:08:51.805Z,5.03
2023-01-11T15:11:34.521Z,4.70
2023-01-11T15:17:45.134Z,5.90
2023-01-11T15:20:20.339Z,4.90
2023-01-11T15:23:04.724Z,4.15
2023-01-11T15:25:37.614Z,3.72
2023-01-11T15:28:45.453Z,6.53
2023-01-11T15:35:34.198Z,4.50
2023-01-11T15:38:42.667Z,3.83
2023-01-11T15:41:58.232Z,4.20
2023-01-11T15:44:49.352Z,6.78
2023-01-11T15:47:45.068Z,6.00
2023-01-11T15:50:58.362Z,5.85
2023-01-11T15:54:10.571Z,5.93
2023-01-11T15:57:46.864Z,5.25
2023-01-11T16:01:24.122Z,4.40
2023-01-11T16:04:15.400Z,6.10
2023-01-11T16:07:05.821Z,5.80
2023-01-11T16:10:20.062Z,5.32
2023-01-11T16:13:05.507Z,4.85
2023-01-11T16:16:17.877Z,4.78
2023-01-11T16:18:55.966Z,5.57
2023-01-11T16:21:35.429Z,4.95
2023-01-11T16:24:13.740Z,6.63
2023-01-11T16:26:54.131Z,6.68
2023-01-11T16:29:32.579Z,5.45
2023-01-11T16:32:33.026Z,4.63
2023-01-11T16:35:25.055Z,5.25
2023-01-11T16:38:01.683Z,5.20
2023-01-11T16:40:40.861Z,6.22
2023-01-11T16:43:25.761Z,4.40
2023-01-11T16:45:58.787Z,3.90
2023-01-11T16:48:31.345Z,4.18
2023-01-11T16:51:16.862Z,4.18
2023-01-11T16:53:58.477Z,4.03
2023-01-11T16:56:30.805Z,6.53
2023-01-11T16:59:24.755Z,5.23
2023-01-11T17:02:01.147Z,3.92
2023-01-11T17:04:49.197Z,5.35
2023-01-11T17:07:27.572Z,5.40
2023-01-11T17:10:23.437Z,8.30
2023-01-11T17:13:43.832Z,5.93
2023-01-11T17:16:19.106Z,5.97
2023-01-11T17:18:51.657Z,6.72
2023-01-11T17:21:29.099Z,15.57
2023-01-11T17:24:06.074Z,12.40
2023-01-11T17:26:45.266Z,6.33
2023-01-11T17:29:27.673Z,8.82
2023-01-11T17:32:03.242Z,7.32
2023-01-11T17:34:38.486Z,8.43
2023-01-11T17:37:14.768Z,5.68
2023-01-11T17:39:51.578Z,8.00
2023-01-11T17:42:43.504Z,8.27
2023-01-11T17:45:22.637Z,7.97
2023-01-11T17:47:57.204Z,7.03
2023-01-11T17:50:32.079Z,5.57
2023-01-11T17:53:15.230Z,6.10
2023-01-11T17:55:58.007Z,5.40
2023-01-11T17:58:31.853Z,7.05
2023-01-11T18:01:18.691Z,5.82
2023-01-11T18:03:58.953Z,6.43
2023-01-11T18:06:41.482Z,6.30
2023-01-11T18:09:31.275Z,5.50
2023-01-11T18:12:12.080Z,5.80
2023-01-11T18:15:25.665Z,9.73
2023-01-11T18:18:02.942Z,8.65
2023-01-11T18:20:38.911Z,6.10
2023-01-11T18:23:11.495Z,6.45
2023-01-11T18:25:45.995Z,7.93
2023-01-11T18:28:31.245Z,7.43
2023-01-11T18:31:04.872Z,8.48
2023-01-11T18:33:39.890Z,5.70
2023-01-11T18:36:23.877Z,6.97
2023-01-11T18:38:56.371Z,7.05
2023-01-11T18:41:48.061Z,5.50
2023-01-11T18:44:21.331Z,8.27
2023-01-11T18:46:53.192Z,8.47
2023-01-11T18:49:25.964Z,8.20
2023-01-11T18:51:57.846Z,8.95
2023-01-11T18:54:30.602Z,9.10
2023-01-11T18:57:03.065Z,7.07
2023-01-11T18:59:36.168Z,9.77
2023-01-11T19:04:58.779Z,8.10
2023-01-11T19:07:30.961Z,7.85
2023-01-11T19:10:04.116Z,6.60
2023-01-11T19:12:36.454Z,5.50
2023-01-11T19:15:10.117Z,6.50
2023-01-11T19:17:43.478Z,7.03
2023-01-11T19:20:16.404Z,10.10
2023-01-11T19:22:48.888Z,7.35
2023-01-11T19:25:21.810Z,7.53
2023-01-11T19:27:55.097Z,7.30
2023-01-11T19:30:28.289Z,7.38
2023-01-11T19:33:01.674Z,6.07
2023-01-11T19:35:33.588Z,9.82
2023-01-11T19:38:06.752Z,8.97
2023-01-11T19:40:39.463Z,10.52
2023-01-11T19:43:11.769Z,8.30
2023-01-11T19:45:44.484Z,7.75
2023-01-11T19:48:17.820Z,7.13
2023-01-11T19:50:49.707Z,6.77
2023-01-11T19:53:22.451Z,8.73
2023-01-11T19:55:59.981Z,10.52
2023-01-11T19:58:33.783Z,8.85
2023-01-11T20:01:11.317Z,9.68
2023-01-11T20:03:45.414Z,9.73
2023-01-11T20:06:17.301Z,7.82
2023-01-11T20:08:51.566Z,11.73
2023-01-11T20:11:23.524Z,8.07
2023-01-11T20:13:56.241Z,8.38
2023-01-11T20:16:29.010Z,8.40
2023-01-11T20:19:01.325Z,10.32
2023-01-11T20:21:34.353Z,10.00
2023-01-11T20:24:07.643Z,9.70
2023-01-11T20:26:40.612Z,10.48
2023-01-11T20:29:13.318Z,13.13
2023-01-11T20:31:45.273Z,11.93
2023-01-11T20:34:18.826Z,13.70
2023-01-11T20:36:51.542Z,8.25
2023-01-11T20:39:25.797Z,7.68
2023-01-11T20:41:57.775Z,8.67
2023-01-11T20:44:32.470Z,10.13
2023-01-11T20:47:04.337Z,10.63
2023-01-11T20:49:37.289Z,9.65
2023-01-11T20:52:09.686Z,7.13
2023-01-11T20:54:42.944Z,11.67
2023-01-11T20:57:15.256Z,11.63
2023-01-11T20:59:47.535Z,10.70
2023-01-11T21:02:20.220Z,6.30
2023-01-11T21:04:52.469Z,10.95
2023-01-11T21:07:25.233Z,8.77
2023-01-11T21:09:57.318Z,8.50
2023-01-11T21:12:30.012Z,6.60
2023-01-11T21:15:02.343Z,14.43
2023-01-11T21:17:35.516Z,10.43
2023-01-11T21:20:08.981Z,8.03
2023-01-11T21:22:40.888Z,11.77
2023-01-11T21:25:13.626Z,11.55
2023-01-11T21:27:46.571Z,9.63
2023-01-11T21:30:18.551Z,6.95
2023-01-11T21:32:51.332Z,9.10
2023-01-11T21:35:23.928Z,8.75
2023-01-11T21:37:59.651Z,9.68
2023-01-11T21:40:31.951Z,12.20
2023-01-11T21:43:04.703Z,9.20
2023-01-11T21:45:36.956Z,8.70
2023-01-11T21:48:10.101Z,8.55
2023-01-11T21:50:46.195Z,12.45
2023-01-11T21:53:18.118Z,11.57
2023-01-11T21:55:50.830Z,8.32
2023-01-11T21:58:22.740Z,10.13
2023-01-11T22:00:55.538Z,10.95
2023-01-11T22:03:29.014Z,12.95
2023-01-11T22:06:02.852Z,12.75
2023-01-11T22:08:36.591Z,10.27
2023-01-11T22:11:09.565Z,10.93
2023-01-11T22:13:43.336Z,8.80
2023-01-11T22:16:18.046Z,12.95
2023-01-11T22:18:51.184Z,10.88
2023-01-11T22:21:23.691Z,9.85
2023-01-11T22:23:59.365Z,13.13
2023-01-11T22:26:33.529Z,11.90
2023-01-11T22:29:16.713Z,13.57
2023-01-11T22:32:00.989Z,14.07
2023-01-11T22:34:34.601Z,10.77
2023-01-11T22:37:07.090Z,12.77
2023-01-11T22:39:40.999Z,15.23
2023-01-11T22:42:13.337Z,12.40
2023-01-11T22:44:45.986Z,10.13
2023-01-11T22:47:18.864Z,8.18
2023-01-11T22:49:54.099Z,13.27
2023-01-11T22:52:28.142Z,9.43
2023-01-11T22:55:00.032Z,8.60
2023-01-11T22:57:33.228Z,14.82
2023-01-11T23:00:07.157Z,11.20
2023-01-11T23:02:40.363Z,11.83
2023-01-11T23:05:13.415Z,16.17
2023-01-11T23:07:45.697Z,14.60
2023-01-11T23:10:17.619Z,9.63
2023-01-11T23:13:08.281Z,16.10
2023-01-11T23:15:40.576Z,11.50
2023-01-11T23:18:12.856Z,10.90
2023-01-11T23:20:44.732Z,9.65
2023-01-11T23:23:17.497Z,16.42
2023-01-11T23:25:54.420Z,14.35
2023-01-11T23:28:30.174Z,18.50
2023-01-11T23:31:19.455Z,7.05
2023-01-11T23:33:55.470Z,9.80
2023-01-11T23:36:32.100Z,11.85
2023-01-11T23:39:15.900Z,10.73
2023-01-11T23:42:07.464Z,12.90
2023-01-11T23:44:40.374Z,12.23
2023-01-11T23:47:22.014Z,10.32
2023-01-11T23:50:02.943Z,11.05
2023-01-11T23:52:35.240Z,12.93
2023-01-11T23:55:09.139Z,11.87
2023-01-11T23:58:01.368Z,15.40
